Time;durP1;ratioP1;P1;durP2;ratioP2;P2;SDS_P1;SDS_P2;PMS_P1;PMS_P2;Temp;Humidity;BMP_temperature;BMP_pressure;BME280_temperature;BME280_humidity;BME280_pressure;Samples;Min_cycle;Max_cycle;Signal;HPM_P1;HPM_P2
2022/08/05 00:00:34;;;;;;;0.20;0.20;;;;;;;24.18;51.42;100770.47;5168592;28;20451;-77
2022/08/05 00:03:08;;;;;;;0.90;0.85;;;;;;;24.17;50.94;100775.97;5178330;28;20144;-77
2022/08/05 00:05:38;;;;;;;0.52;0.52;;;;;;;24.11;51.32;100776.47;5165464;28;20045;-77
2022/08/05 00:08:09;;;;;;;0.35;0.35;;;;;;;24.13;51.12;100774.53;5155455;28;20113;-77
2022/08/05 00:10:40;;;;;;;0.43;0.43;;;;;;;24.10;50.14;100778.28;5160972;28;20441;-77
2022/08/05 00:13:10;;;;;;;0.38;0.38;;;;;;;24.05;50.67;100778.69;5189562;28;20117;-77
2022/08/05 00:15:41;;;;;;;1.75;0.68;;;;;;;24.02;52.05;100772.72;5176195;28;20101;-77
2022/08/05 00:18:11;;;;;;;0.30;0.30;;;;;;;24.03;51.49;100777.97;5153083;28;20033;-77
2022/08/05 00:20:42;;;;;;;0.28;0.28;;;;;;;23.99;51.17;100773.00;5182541;28;20125;-77
2022/08/05 00:23:12;;;;;;;0.93;0.63;;;;;;;23.99;50.66;100767.66;5160118;28;20026;-78
2022/08/05 00:25:43;;;;;;;0.40;0.40;;;;;;;23.94;51.32;100769.84;5169456;28;20077;-77
2022/08/05 00:28:14;;;;;;;0.30;0.30;;;;;;;23.98;51.50;100766.78;5138433;28;20036;-78
2022/08/05 00:30:45;;;;;;;0.75;0.75;;;;;;;23.92;51.51;100769.09;5151109;28;20049;-79
2022/08/05 00:33:16;;;;;;;0.43;0.43;;;;;;;24.00;51.60;100769.34;5151911;28;20027;-78
2022/08/05 00:35:46;;;;;;;0.32;0.32;;;;;;;23.89;53.00;100760.34;5136782;28;20065;-78
2022/08/05 00:38:17;;;;;;;0.98;0.93;;;;;;;23.84;52.97;100759.84;5172814;28;20037;-77
2022/08/05 00:40:50;;;;;;;0.70;0.65;;;;;;;23.84;52.81;100750.97;5146470;28;20048;-78
2022/08/05 00:43:21;;;;;;;0.32;0.32;;;;;;;23.79;53.28;100755.88;5187155;28;20414;-78
2022/08/05 00:45:52;;;;;;;0.30;0.30;;;;;;;23.73;53.76;100762.59;5162240;28;20050;-78
2022/08/05 00:48:22;;;;;;;0.57;0.57;;;;;;;23.76;53.38;100773.03;5189041;28;20042;-78
2022/08/05 00:50:53;;;;;;;0.45;0.45;;;;;;;23.64;54.82;100779.41;5171751;28;20062;-78
2022/08/05 00:53:23;;;;;;;0.20;0.20;;;;;;;23.53;54.21;100778.44;5178079;28;20059;-78
2022/08/05 00:55:54;;;;;;;0.65;0.65;;;;;;;23.51;54.30;100774.19;5154863;28;20550;-78
2022/08/05 00:58:24;;;;;;;1.20;0.80;;;;;;;23.47;53.90;100775.44;5181844;28;20045;-78
2022/08/05 01:00:55;;;;;;;0.35;0.35;;;;;;;23.41;53.89;100784.81;5188071;28;20493;-78
2022/08/05 01:03:26;;;;;;;0.50;0.50;;;;;;;23.41;54.42;100777.59;5140817;28;20037;-78
2022/08/05 01:05:56;;;;;;;0.40;0.40;;;;;;;23.36;53.91;100782.50;5147714;28;20056;-78
2022/08/05 01:08:27;;;;;;;0.22;0.22;;;;;;;23.32;54.33;100786.38;5193760;28;20536;-78
2022/08/05 01:11:03;;;;;;;0.50;0.50;;;;;;;23.34;55.08;100783.59;5153582;28;20046;-78
2022/08/05 01:13:50;;;;;;;0.52;0.50;;;;;;;23.26;53.61;100774.34;5184591;28;20034;-78
2022/08/05 01:16:31;;;;;;;0.40;0.40;;;;;;;23.19;53.87;100759.75;5166627;28;20038;-78
2022/08/05 01:19:18;;;;;;;0.40;0.40;;;;;;;23.17;54.27;100759.00;5176858;28;20124;-78
2022/08/05 01:22:11;;;;;;;1.80;0.93;;;;;;;23.12;54.25;100747.78;5177945;28;20519;-78
2022/08/05 01:24:58;;;;;;;;;;;;;;;23.08;54.69;100751.72;5172819;28;20110;-78
2022/08/05 01:27:47;;;;;;;0.38;0.38;;;;;;;23.03;55.03;100769.94;5178024;28;19928;-79
2022/08/05 01:30:18;;;;;;;0.50;0.50;;;;;;;23.00;54.75;100780.91;5179208;28;20410;-79
2022/08/05 01:32:50;;;;;;;3.05;1.60;;;;;;;23.00;55.40;100791.59;5169328;28;20066;-79
2022/08/05 01:35:25;;;;;;;1.35;1.00;;;;;;;22.95;54.57;100779.41;5164393;28;20114;-79
2022/08/05 01:38:00;;;;;;;0.30;0.30;;;;;;;22.91;54.34;100783.31;5178366;28;20037;-78
2022/08/05 01:40:32;;;;;;;0.50;0.50;;;;;;;22.97;54.90;100807.88;5149906;28;20049;-78
2022/08/05 01:43:03;;;;;;;0.40;0.40;;;;;;;22.86;56.16;100833.63;5164078;28;20446;-78
2022/08/05 01:45:34;;;;;;;0.55;0.50;;;;;;;22.90;55.17;100861.88;5178484;28;20151;-78
2022/08/05 01:48:09;;;;;;;0.77;0.77;;;;;;;22.83;55.05;100882.03;5175052;28;20496;-79
2022/08/05 01:50:40;;;;;;;2.05;1.20;;;;;;;22.78;56.53;100889.53;5186497;28;20080;-79
2022/08/05 01:53:15;;;;;;;0.40;0.40;;;;;;;22.73;56.21;100876.53;5194420;28;20394;-78
2022/08/05 01:55:47;;;;;;;0.30;0.30;;;;;;;22.82;57.81;100877.66;5169022;28;20038;-78
2022/08/05 01:58:19;;;;;;;0.75;0.75;;;;;;;22.81;58.36;100889.31;5186940;28;20084;-79
2022/08/05 02:00:50;;;;;;;2.08;1.17;;;;;;;22.71;57.62;100893.66;5168310;28;20053;-79
2022/08/05 02:03:31;;;;;;;0.32;0.32;;;;;;;22.69;58.06;100893.78;5172848;28;20038;-78
2022/08/05 02:06:04;;;;;;;0.52;0.52;;;;;;;22.66;58.35;100887.81;5158132;28;20046;-79
2022/08/05 02:08:35;;;;;;;;;;;;;;;22.62;59.16;100885.38;5167800;28;20073;-78
2022/08/05 02:11:16;;;;;;;0.50;0.50;;;;;;;22.58;58.20;100888.38;5176776;28;19984;-78
2022/08/05 02:13:53;;;;;;;1.10;1.00;;;;;;;22.38;62.35;100892.53;5174672;28;20112;-78
2022/08/05 02:16:28;;;;;;;0.30;0.30;;;;;;;22.38;59.38;100881.84;5183763;28;20038;-79
2022/08/05 02:19:04;;;;;;;0.57;0.57;;;;;;;22.29;61.35;100886.91;5177728;28;20453;-78
2022/08/05 02:21:42;;;;;;;0.73;0.73;;;;;;;22.33;60.62;100895.53;5170852;28;20505;-78
2022/08/05 02:24:18;;;;;;;0.95;0.93;;;;;;;22.27;60.40;100898.66;5174319;28;20034;-78
2022/08/05 02:26:54;;;;;;;0.55;0.40;;;;;;;22.16;60.72;100896.78;5195510;28;20037;-79
2022/08/05 02:29:27;;;;;;;0.73;0.73;;;;;;;22.13;61.13;100918.38;5179290;28;20034;-78
2022/08/05 02:31:58;;;;;;;1.42;1.33;;;;;;;22.08;61.10;100937.41;5173269;28;20072;-78
2022/08/05 02:34:31;;;;;;;0.70;0.70;;;;;;;22.10;58.65;100942.69;5192133;28;20022;-78
2022/08/05 02:37:11;;;;;;;3.35;1.27;;;;;;;22.01;61.93;100923.66;5195348;28;20081;-79
2022/08/05 02:39:42;;;;;;;0.73;0.73;;;;;;;22.05;58.80;100904.72;5159136;28;20033;-78
2022/08/05 02:42:13;;;;;;;0.30;0.30;;;;;;;22.03;58.87;100899.50;5157159;28;20087;-78
2022/08/05 02:44:45;;;;;;;0.40;0.40;;;;;;;21.99;58.91;100861.47;5188645;28;20033;-78
2022/08/05 02:47:16;;;;;;;0.25;0.25;;;;;;;22.03;60.35;100806.00;5170950;28;20041;-79
2022/08/05 02:49:48;;;;;;;0.95;0.95;;;;;;;22.02;58.56;100775.75;5158816;28;20421;-79
2022/08/05 02:52:19;;;;;;;1.00;0.90;;;;;;;22.02;59.96;100773.06;5173468;28;20038;-78
2022/08/05 02:54:52;;;;;;;0.80;0.80;;;;;;;21.98;60.39;100771.63;5180254;28;20674;-78
2022/08/05 02:57:23;;;;;;;;;;;;;;;22.05;59.42;100749.78;5152618;28;20049;-78
2022/08/05 02:59:54;;;;;;;0.43;0.38;;;;;;;22.00;59.56;100745.66;5176102;28;19956;-78
2022/08/05 03:02:36;;;;;;;0.47;0.47;;;;;;;22.01;59.65;100742.00;5158001;28;20077;-79
2022/08/05 03:05:10;;;;;;;0.43;0.43;;;;;;;21.89;61.10;100736.75;5135954;28;20736;-78
2022/08/05 03:07:43;;;;;;;0.70;0.70;;;;;;;21.94;59.24;100748.75;5170389;28;20034;-79
2022/08/05 03:10:19;;;;;;;1.38;1.27;;;;;;;21.94;58.51;100788.81;5160522;28;20038;-78
2022/08/05 03:12:52;;;;;;;0.28;0.28;;;;;;;21.93;59.24;100810.31;5176554;28;20037;-78
2022/08/05 03:15:23;;;;;;;;;;;;;;;21.90;58.79;100799.88;5181340;28;20390;-78
2022/08/05 03:17:54;;;;;;;0.60;0.60;;;;;;;21.89;59.35;100801.69;5202096;28;19993;-79
2022/08/05 03:20:25;;;;;;;1.35;0.70;;;;;;;21.91;58.20;100817.56;5204984;28;20319;-78
2022/08/05 03:22:56;;;;;;;1.33;1.10;;;;;;;21.90;57.96;100835.44;5227823;28;20057;-78
2022/08/05 03:25:27;;;;;;;0.75;0.65;;;;;;;21.88;58.53;100845.38;5203472;28;20088;-78
2022/08/05 03:27:58;;;;;;;0.75;0.75;;;;;;;21.88;58.67;100863.22;5182301;28;20517;-78
2022/08/05 03:30:31;;;;;;;1.05;0.68;;;;;;;21.88;59.41;100864.06;5175872;28;20038;-78
2022/08/05 03:33:03;;;;;;;0.88;0.80;;;;;;;21.90;59.01;100872.84;5177688;28;20034;-78
2022/08/05 03:35:34;;;;;;;1.10;0.38;;;;;;;21.97;58.85;100884.78;5175792;28;20050;-78
2022/08/05 03:38:05;;;;;;;0.95;0.85;;;;;;;21.94;58.92;100879.66;5157905;28;20037;-77
2022/08/05 03:40:39;;;;;;;0.38;0.38;;;;;;;22.00;59.15;100889.03;5185844;28;20037;-78
2022/08/05 03:43:11;;;;;;;0.50;0.45;;;;;;;21.94;62.61;100885.00;5195135;28;20048;-78
2022/08/05 03:45:42;;;;;;;0.40;0.40;;;;;;;22.00;59.65;100876.53;5196667;28;20069;-78
2022/08/05 03:48:13;;;;;;;0.55;0.55;;;;;;;21.99;59.63;100865.94;5206152;28;20026;-77
2022/08/05 03:51:02;;;;;;;0.40;0.40;;;;;;;21.96;59.08;100845.66;5180714;28;20046;-77
2022/08/05 03:53:56;;;;;;;2.72;1.38;;;;;;;21.92;59.21;100841.53;5151329;28;20034;-78
2022/08/05 03:56:37;;;;;;;1.42;1.23;;;;;;;21.88;59.35;100834.69;5161868;28;20065;-77
2022/08/05 03:59:34;;;;;;;0.35;0.35;;;;;;;21.92;58.62;100808.59;5153798;28;20046;-78
2022/08/05 04:02:06;;;;;;;0.70;0.70;;;;;;;21.92;58.50;100788.09;5180401;28;20037;-78
2022/08/05 04:04:38;;;;;;;0.57;0.55;;;;;;;21.91;58.69;100783.72;5179942;28;20061;-77
2022/08/05 04:07:10;;;;;;;0.77;0.47;;;;;;;21.91;59.26;100797.09;5186820;28;20461;-78
2022/08/05 04:09:41;;;;;;;1.83;1.73;;;;;;;21.93;59.83;100800.50;5177586;28;20064;-78
2022/08/05 04:12:11;;;;;;;0.68;0.68;;;;;;;21.85;60.70;100800.22;5188129;28;20466;-77
2022/08/05 04:14:42;;;;;;;0.57;0.57;;;;;;;21.89;59.91;100793.66;5199859;28;20037;-78
2022/08/05 04:17:13;;;;;;;3.60;1.67;;;;;;;21.85;61.38;100800.22;5173240;28;20173;-78
2022/08/05 04:19:45;;;;;;;0.20;0.20;;;;;;;21.85;60.12;100805.56;5199982;28;20116;-78
2022/08/05 04:22:16;;;;;;;0.90;0.90;;;;;;;21.85;59.79;100822.41;5189016;28;20435;-78
2022/08/05 04:24:47;;;;;;;0.40;0.40;;;;;;;21.91;61.41;100823.78;5173002;28;20040;-77
2022/08/05 04:27:17;;;;;;;0.68;0.40;;;;;;;21.83;60.28;100807.47;5189288;28;20049;-78
2022/08/05 04:29:48;;;;;;;1.00;0.93;;;;;;;21.87;60.46;100814.28;5194744;28;20076;-78
2022/08/05 04:32:18;;;;;;;0.60;0.60;;;;;;;21.80;60.61;100821.03;5174798;28;20034;-78
2022/08/05 04:34:49;;;;;;;0.90;0.85;;;;;;;21.84;61.95;100814.53;5194085;28;20076;-78
2022/08/05 04:37:19;;;;;;;0.80;0.77;;;;;;;21.79;60.66;100814.00;5185188;28;20087;-77
2022/08/05 04:39:50;;;;;;;0.95;0.95;;;;;;;21.72;61.07;100820.75;5168059;28;20503;-78
2022/08/05 04:42:20;;;;;;;1.95;1.63;;;;;;;21.74;60.26;100821.50;5169152;28;20065;-78
2022/08/05 04:44:51;;;;;;;0.77;0.77;;;;;;;21.72;60.30;100823.41;5188489;28;20040;-78
2022/08/05 04:47:21;;;;;;;0.75;0.75;;;;;;;21.72;60.91;100831.44;5175356;28;20066;-77
2022/08/05 04:49:52;;;;;;;0.70;0.70;;;;;;;21.73;59.90;100820.66;5166829;28;20116;-78
2022/08/05 04:52:22;;;;;;;0.70;0.70;;;;;;;21.69;60.16;100814.66;5176749;28;20042;-78
2022/08/05 04:54:53;;;;;;;1.42;1.33;;;;;;;21.69;59.38;100814.66;5178936;28;20037;-78
2022/08/05 04:57:25;;;;;;;1.25;1.15;;;;;;;21.67;60.74;100813.94;5191149;28;20656;-80
2022/08/05 04:59:56;;;;;;;1.05;1.05;;;;;;;21.70;60.22;100791.50;5171621;28;20026;-79
2022/08/05 05:02:27;;;;;;;1.85;1.73;;;;;;;21.65;60.41;100807.00;5192329;28;20043;-81
2022/08/05 05:04:57;;;;;;;1.77;0.88;;;;;;;21.68;59.88;100818.31;5166786;28;20037;-81
2022/08/05 05:07:28;;;;;;;1.60;1.45;;;;;;;21.69;60.87;100821.84;5188739;28;20512;-80
2022/08/05 05:10:02;;;;;;;2.10;1.70;;;;;;;21.65;61.03;100826.53;5180665;28;20033;-80
2022/08/05 05:12:33;;;;;;;1.38;1.27;;;;;;;21.68;61.39;100833.47;5156130;28;20034;-80
2022/08/05 05:15:08;;;;;;;1.52;1.33;;;;;;;21.69;60.10;100829.84;5155348;28;20083;-80
2022/08/05 05:17:40;;;;;;;1.60;1.48;;;;;;;21.75;60.54;100836.56;5181761;28;20417;-80
2022/08/05 05:20:12;;;;;;;1.17;1.05;;;;;;;21.77;60.74;100837.31;5165057;28;20502;-80
2022/08/05 05:22:42;;;;;;;2.35;2.05;;;;;;;21.75;61.33;100839.22;5184878;28;20850;-80
2022/08/05 05:25:14;;;;;;;2.72;1.40;;;;;;;21.68;61.80;100842.34;5153294;28;20101;-80
2022/08/05 05:27:45;;;;;;;1.30;1.20;;;;;;;21.69;60.65;100836.03;5169289;28;20092;-80
2022/08/05 05:30:16;;;;;;;8.75;2.50;;;;;;;21.70;60.19;100844.91;5174578;28;20030;-80
2022/08/05 05:32:46;;;;;;;2.40;2.22;;;;;;;21.70;60.86;100842.22;5156908;28;20041;-80
2022/08/05 05:35:17;;;;;;;1.55;0.93;;;;;;;21.66;60.51;100838.94;5144238;28;20030;-81
2022/08/05 05:37:55;;;;;;;2.08;1.88;;;;;;;21.65;61.50;100847.91;5159532;28;20034;-80
2022/08/05 05:40:27;;;;;;;2.47;2.08;;;;;;;21.66;61.28;100856.75;5171418;28;20064;-80
2022/08/05 05:42:58;;;;;;;1.33;1.27;;;;;;;21.60;61.82;100863.41;5157745;28;20033;-80
2022/08/05 05:45:28;;;;;;;1.40;1.30;;;;;;;21.62;60.30;100856.13;5177992;28;20038;-80
2022/08/05 05:48:00;;;;;;;1.50;1.40;;;;;;;21.65;59.82;100858.59;5172454;28;20458;-80
2022/08/05 05:50:30;;;;;;;3.47;2.85;;;;;;;21.65;61.03;100863.91;5154647;28;20038;-80
2022/08/05 05:53:01;;;;;;;4.05;2.70;;;;;;;21.70;62.11;100867.09;5171813;28;20034;-80
2022/08/05 05:55:34;;;;;;;3.30;2.03;;;;;;;21.65;62.04;100858.59;5176437;28;20183;-80
2022/08/05 05:58:05;;;;;;;3.40;1.75;;;;;;;21.61;60.58;100859.75;5186398;28;20049;-80
2022/08/05 06:00:35;;;;;;;1.40;1.30;;;;;;;21.62;60.79;100858.78;5173600;28;20033;-81
2022/08/05 06:03:08;;;;;;;2.85;1.48;;;;;;;21.60;64.23;100871.41;5187793;28;20034;-80
2022/08/05 06:05:39;;;;;;;;;;;;;;;21.56;61.51;100875.22;5205971;28;20053;-80
2022/08/05 06:08:09;;;;;;;2.22;2.03;;;;;;;21.58;62.56;100884.03;5158972;28;19913;-81
2022/08/05 06:10:40;;;;;;;2.42;1.48;;;;;;;21.54;62.74;100879.81;5178782;28;20057;-81
2022/08/05 06:13:10;;;;;;;1.50;1.40;;;;;;;21.53;62.02;100872.75;5162794;28;20057;-81
2022/08/05 06:15:41;;;;;;;1.45;1.35;;;;;;;21.53;62.81;100878.97;5193542;28;20045;-80
2022/08/05 06:18:11;;;;;;;1.83;1.73;;;;;;;21.54;61.81;100893.16;5183120;28;20338;-80
2022/08/05 06:20:42;;;;;;;1.98;1.83;;;;;;;21.53;63.36;100891.44;5180887;28;20054;-81
2022/08/05 06:23:12;;;;;;;1.58;1.48;;;;;;;21.47;62.85;100892.75;5153861;28;20034;-80
2022/08/05 06:25:43;;;;;;;1.48;1.38;;;;;;;21.41;62.59;100897.66;5149434;28;20042;-80
2022/08/05 06:28:14;;;;;;;1.15;1.02;;;;;;;21.38;62.36;100904.91;5168591;28;20667;-81
2022/08/05 06:30:44;;;;;;;1.33;1.20;;;;;;;21.36;62.82;100917.50;5160300;28;20095;-80
2022/08/05 06:33:15;;;;;;;5.65;2.85;;;;;;;21.47;63.20;100911.44;5177911;28;20514;-81
2022/08/05 06:35:45;;;;;;;1.38;1.30;;;;;;;21.42;63.15;100916.22;5139490;28;20137;-82
2022/08/05 06:38:16;;;;;;;3.45;1.83;;;;;;;21.38;63.56;100904.91;5145679;28;20046;-83
2022/08/05 06:40:47;;;;;;;1.05;0.95;;;;;;;21.30;62.83;100912.59;5121210;28;20616;-85
2022/08/05 06:43:18;;;;;;;4.82;1.48;;;;;;;21.25;63.17;100914.75;5155821;28;20034;-84
2022/08/05 06:45:49;;;;;;;3.22;1.20;;;;;;;21.29;63.24;100916.22;5145917;28;20061;-82
2022/08/05 06:48:19;;;;;;;0.52;0.50;;;;;;;21.23;63.29;100912.19;5151260;28;20727;-82
2022/08/05 06:50:51;;;;;;;2.95;1.65;;;;;;;21.20;63.22;100915.06;5171820;28;20797;-83
2022/08/05 06:53:21;;;;;;;1.65;1.38;;;;;;;21.18;63.21;100914.31;5158452;28;20198;-83
2022/08/05 06:55:52;;;;;;;2.38;1.48;;;;;;;21.23;62.65;100914.00;5158106;28;20150;-82
2022/08/05 06:58:22;;;;;;;1.75;1.25;;;;;;;21.09;63.18;100914.09;5156564;28;20506;-83
2022/08/05 07:00:53;;;;;;;4.13;1.23;;;;;;;21.05;63.43;100919.63;5159873;28;20077;-82
2022/08/05 07:03:23;;;;;;;3.70;1.85;;;;;;;21.05;62.08;100922.28;5143830;28;21180;-80
2022/08/05 07:05:54;;;;;;;2.22;1.88;;;;;;;20.99;62.87;100932.56;5180648;28;20530;-81
2022/08/05 07:08:26;;;;;;;1.08;1.08;;;;;;;20.91;62.65;100941.91;5184608;28;20417;-81
2022/08/05 07:10:57;;;;;;;1.17;1.08;;;;;;;20.90;62.82;100947.34;5190471;28;20574;-82
2022/08/05 07:19:08;;;;;;;1.10;0.80;;;;;;;20.87;63.09;100959.09;5180908;28;20092;-81
2022/08/05 07:21:40;;;;;;;0.95;0.95;;;;;;;20.83;64.00;100968.22;5190324;28;20034;-82
2022/08/05 07:24:11;;;;;;;0.75;0.73;;;;;;;20.83;62.50;100972.72;5166523;28;20040;-81
2022/08/05 07:26:42;;;;;;;0.32;0.32;;;;;;;20.87;62.71;100974.22;5192192;28;20040;-82
2022/08/05 07:29:14;;;;;;;0.35;0.35;;;;;;;20.80;62.26;100979.13;5182379;28;20021;-82
2022/08/05 07:31:44;;;;;;;0.80;0.80;;;;;;;20.77;62.06;100979.31;5168789;28;20041;-81
2022/08/05 07:34:15;;;;;;;0.40;0.40;;;;;;;20.81;62.28;100983.50;5175684;28;20026;-82
2022/08/05 07:36:45;;;;;;;0.73;0.70;;;;;;;20.75;61.97;100991.88;5167706;28;20219;-81
2022/08/05 07:39:16;;;;;;;0.50;0.50;;;;;;;20.71;62.90;100991.19;5181976;28;20057;-82
2022/08/05 07:41:46;;;;;;;0.47;0.30;;;;;;;20.72;62.21;100989.41;5173390;28;20075;-82
2022/08/05 07:44:17;;;;;;;0.38;0.38;;;;;;;20.72;61.87;101003.56;5167853;28;20033;-82
2022/08/05 07:46:48;;;;;;;0.90;0.88;;;;;;;20.77;62.15;101011.31;5195325;28;20045;-82
2022/08/05 07:49:19;;;;;;;2.13;1.35;;;;;;;20.72;62.55;101013.41;5170058;28;20026;-81
2022/08/05 07:51:49;;;;;;;1.33;1.08;;;;;;;20.67;62.58;101016.38;5175602;28;20050;-81
2022/08/05 07:54:25;;;;;;;0.73;0.73;;;;;;;20.52;64.39;101020.03;5177566;28;20096;-81
2022/08/05 07:56:55;;;;;;;1.08;0.98;;;;;;;20.52;63.07;101017.34;5153308;28;20111;-82
2022/08/05 07:59:26;;;;;;;0.70;0.70;;;;;;;20.51;63.53;101020.97;5166677;28;20030;-82
2022/08/05 08:01:57;;;;;;;4.82;0.63;;;;;;;20.57;62.50;101025.91;5211102;28;20065;-82
2022/08/05 08:04:27;;;;;;;0.63;0.63;;;;;;;20.50;63.32;101019.25;5182730;28;20038;-81
2022/08/05 08:06:59;;;;;;;0.32;0.32;;;;;;;20.45;63.68;101032.88;5163364;28;20041;-81
2022/08/05 08:09:30;;;;;;;0.63;0.63;;;;;;;20.43;63.42;101035.66;5165765;28;20022;-82
2022/08/05 08:12:03;;;;;;;0.32;0.32;;;;;;;20.42;62.83;101047.25;5184102;28;20060;-82
2022/08/05 08:14:33;;;;;;;0.98;0.98;;;;;;;20.44;62.41;101041.81;5181059;28;20052;-81
2022/08/05 08:17:09;;;;;;;0.52;0.52;;;;;;;20.37;63.67;101052.00;5182287;28;20041;-82
2022/08/05 08:19:40;;;;;;;0.73;0.73;;;;;;;20.37;63.00;101049.34;5180571;28;20029;-82
2022/08/05 08:22:11;;;;;;;1.38;0.77;;;;;;;20.33;62.38;101053.16;5196236;28;20041;-82
2022/08/05 08:24:42;;;;;;;0.60;0.60;;;;;;;20.35;62.30;101059.25;5173221;28;20038;-82
2022/08/05 08:27:12;;;;;;;1.10;1.00;;;;;;;20.32;63.00;101055.94;5163676;28;20046;-82
2022/08/05 08:29:43;;;;;;;0.40;0.40;;;;;;;20.35;62.35;101061.94;5208383;28;20083;-80
2022/08/05 08:32:13;;;;;;;0.40;0.40;;;;;;;20.30;62.13;101066.66;5175553;28;20121;-80
2022/08/05 08:34:44;;;;;;;0.40;0.40;;;;;;;20.28;62.22;101069.44;5168901;28;20112;-80
2022/08/05 08:37:16;;;;;;;0.60;0.60;;;;;;;20.28;62.23;101072.09;5167071;28;20036;-80
2022/08/05 08:39:46;;;;;;;0.52;0.52;;;;;;;20.22;62.56;101068.97;5164457;28;20125;-81
2022/08/05 08:42:19;;;;;;;0.50;0.50;;;;;;;20.23;62.43;101076.00;5153994;28;20117;-81
2022/08/05 08:44:53;;;;;;;0.40;0.40;;;;;;;20.24;62.72;101083.03;5177727;28;20030;-82
2022/08/05 08:47:26;;;;;;;0.30;0.30;;;;;;;20.23;62.44;101086.66;5185794;28;20545;-82
2022/08/05 08:49:58;;;;;;;0.43;0.43;;;;;;;20.25;61.40;101095.44;5163315;28;20042;-82
2022/08/05 08:52:30;;;;;;;0.20;0.20;;;;;;;20.26;61.56;101097.97;5178631;28;20103;-81
2022/08/05 08:55:07;;;;;;;0.40;0.40;;;;;;;20.20;62.45;101102.84;5141727;28;20030;-80
2022/08/05 08:57:37;;;;;;;0.47;0.47;;;;;;;20.17;62.23;101097.72;5159110;28;20171;-80
2022/08/05 09:00:08;;;;;;;0.93;0.50;;;;;;;20.20;61.08;101101.03;5174648;28;20224;-80
2022/08/05 09:02:39;;;;;;;0.35;0.35;;;;;;;20.18;61.77;101107.41;5165473;28;20037;-80
2022/08/05 09:05:11;;;;;;;0.20;0.20;;;;;;;20.18;61.64;101104.75;5160749;28;20030;-80
2022/08/05 09:07:41;;;;;;;0.40;0.40;;;;;;;20.17;61.71;101101.22;5183708;28;20571;-79
2022/08/05 09:10:12;;;;;;;1.63;1.52;;;;;;;20.19;61.43;101120.63;5177754;28;20097;-80
2022/08/05 09:12:43;;;;;;;0.20;0.20;;;;;;;20.21;61.97;101116.06;5156708;28;20034;-80
2022/08/05 09:15:14;;;;;;;2.00;1.90;;;;;;;20.20;62.63;101110.84;5138716;28;20026;-80
2022/08/05 09:17:45;;;;;;;0.30;0.30;;;;;;;20.23;61.03;101106.19;5175332;28;20025;-81
2022/08/05 09:20:15;;;;;;;2.03;0.40;;;;;;;20.24;61.47;101118.56;5163770;28;20114;-80
2022/08/05 09:23:13;;;;;;;0.30;0.25;;;;;;;20.29;61.52;101128.91;5176539;28;20052;-80
2022/08/05 09:25:46;;;;;;;0.57;0.55;;;;;;;20.29;61.45;101135.09;5179662;28;20634;-80
2022/08/05 09:28:23;;;;;;;0.28;0.28;;;;;;;20.33;61.83;101126.94;5156356;28;20470;-80
2022/08/05 09:30:56;;;;;;;0.35;0.35;;;;;;;20.41;61.14;101144.16;5185245;28;20069;-80
2022/08/05 09:33:27;;;;;;;1.08;0.80;;;;;;;20.43;60.81;101139.59;5184999;28;20447;-80
2022/08/05 09:36:00;;;;;;;0.40;0.40;;;;;;;20.41;61.58;101146.81;5188756;28;20042;-80
2022/08/05 09:38:31;;;;;;;0.50;0.50;;;;;;;20.46;60.94;101149.19;5171767;28;20041;-80
2022/08/05 09:41:04;;;;;;;0.70;0.70;;;;;;;20.41;62.03;101148.63;5168413;28;20042;-80
2022/08/05 09:43:37;;;;;;;0.63;0.63;;;;;;;20.42;61.25;101151.19;5143626;28;20037;-81
2022/08/05 09:46:24;;;;;;;0.60;0.60;;;;;;;20.47;60.83;101152.69;5167720;28;20507;-81
2022/08/05 09:48:56;;;;;;;4.63;3.60;;;;;;;20.51;61.92;101151.56;5187597;28;20104;-81
2022/08/05 09:51:36;;;;;;;0.98;0.77;;;;;;;20.50;62.19;101155.19;5162883;28;20583;-80
2022/08/05 09:54:10;;;;;;;1.00;0.70;;;;;;;20.62;61.43;101164.22;5157896;28;20052;-81
2022/08/05 09:56:44;;;;;;;0.93;0.47;;;;;;;20.61;61.91;101163.38;5163179;28;20093;-81
2022/08/05 09:59:16;;;;;;;0.73;0.73;;;;;;;20.59;61.87;101162.63;5156219;28;20041;-81
2022/08/05 10:01:46;;;;;;;1.02;0.77;;;;;;;20.72;61.11;101163.53;5161010;28;20052;-79
2022/08/05 10:04:17;;;;;;;0.70;0.65;;;;;;;20.68;60.70;101172.72;5156177;28;20034;-80
2022/08/05 10:06:55;;;;;;;0.95;0.90;;;;;;;20.71;61.34;101176.97;5162691;28;20042;-80
2022/08/05 10:09:26;;;;;;;0.30;0.30;;;;;;;20.75;61.10;101179.41;5195131;28;20030;-80
2022/08/05 10:12:08;;;;;;;0.55;0.55;;;;;;;20.77;61.65;101189.97;5163174;28;20053;-80
2022/08/05 10:14:39;;;;;;;4.60;1.05;;;;;;;20.84;61.82;101190.44;5201657;28;20144;-80
2022/08/05 10:17:14;;;;;;;0.30;0.30;;;;;;;20.87;61.81;101199.09;5181790;28;20136;-80
2022/08/05 10:19:45;;;;;;;0.43;0.43;;;;;;;20.94;61.39;101199.56;5171321;28;20017;-80
2022/08/05 10:22:16;;;;;;;0.60;0.60;;;;;;;21.00;61.45;101203.63;5171763;28;20038;-80
2022/08/05 10:24:47;;;;;;;2.08;0.63;;;;;;;21.00;61.62;101206.31;5183936;28;20030;-80
2022/08/05 10:27:17;;;;;;;0.88;0.70;;;;;;;21.06;60.74;101204.13;5156692;28;20044;-79
2022/08/05 10:29:48;;;;;;;0.50;0.50;;;;;;;21.10;60.55;101203.94;5168650;28;20042;-80
2022/08/05 10:32:19;;;;;;;0.30;0.30;;;;;;;21.19;60.65;101209.53;5175547;28;20053;-79
2022/08/05 10:34:49;;;;;;;0.30;0.30;;;;;;;21.16;60.42;101208.88;5146905;28;20030;-81
2022/08/05 10:37:20;;;;;;;1.02;0.52;;;;;;;21.26;59.72;101215.34;5168229;28;20567;-80
2022/08/05 10:39:53;;;;;;;0.50;0.50;;;;;;;21.30;59.76;101216.00;5157038;28;20034;-81
2022/08/05 10:42:27;;;;;;;0.30;0.30;;;;;;;21.24;59.83;101214.56;5170917;28;20140;-81
2022/08/05 10:44:57;;;;;;;1.92;1.35;;;;;;;21.30;59.54;101221.31;5188779;28;20029;-81
2022/08/05 10:47:35;;;;;;;0.20;0.20;;;;;;;21.27;59.18;101225.06;5199797;28;20127;-81
2022/08/05 10:50:12;;;;;;;0.45;0.45;;;;;;;21.30;58.72;101219.50;5198013;28;20026;-80
2022/08/05 10:52:46;;;;;;;0.22;0.22;;;;;;;21.35;59.26;101230.75;5182027;28;20025;-81
2022/08/05 10:55:17;;;;;;;0.82;0.80;;;;;;;21.42;58.88;101227.69;5169084;28;20033;-81
2022/08/05 10:58:05;;;;;;;0.40;0.40;;;;;;;21.42;58.87;101235.69;5194167;28;20568;-81
2022/08/05 11:00:45;;;;;;;0.30;0.30;;;;;;;21.46;58.86;101223.84;5179464;28;20059;-81
2022/08/05 11:03:16;;;;;;;0.35;0.35;;;;;;;21.55;58.77;101231.25;5176285;28;20038;-81
2022/08/05 11:06:03;;;;;;;0.70;0.50;;;;;;;21.59;58.77;101239.94;5176308;28;20045;-81
2022/08/05 11:08:34;;;;;;;2.17;1.02;;;;;;;21.65;58.97;101237.75;5196251;28;20100;-81
2022/08/05 11:11:34;;;;;;;1.00;0.35;;;;;;;21.76;59.08;101237.03;5189119;28;20121;-80
2022/08/05 11:14:06;;;;;;;0.40;0.40;;;;;;;21.87;58.14;101236.31;5180033;28;20069;-81
2022/08/05 11:16:39;;;;;;;2.63;0.50;;;;;;;21.82;58.34;101228.59;5184288;28;20108;-81
2022/08/05 11:19:29;;;;;;;0.32;0.32;;;;;;;21.92;58.53;101236.88;5168119;28;20129;-81
2022/08/05 11:22:38;;;;;;;0.30;0.30;;;;;;;22.03;57.29;101246.84;5178168;28;20400;-81
2022/08/05 11:25:32;;;;;;;0.68;0.68;;;;;;;22.06;57.54;101245.75;5142503;28;20049;-81
2022/08/05 11:28:12;;;;;;;0.30;0.30;;;;;;;22.18;57.59;101244.94;5188131;28;20022;-80
2022/08/05 11:30:57;;;;;;;1.00;0.73;;;;;;;22.21;57.72;101244.72;5152617;28;20144;-81
2022/08/05 11:33:30;;;;;;;0.40;0.40;;;;;;;22.31;57.04;101250.31;5162109;28;20037;-81
2022/08/05 11:36:10;;;;;;;0.40;0.40;;;;;;;22.33;56.75;101251.91;5171695;28;20053;-80
2022/08/05 11:38:40;;;;;;;2.08;1.08;;;;;;;22.42;56.64;101241.56;5152999;28;20116;-81
2022/08/05 11:41:21;;;;;;;0.20;0.20;;;;;;;22.46;56.82;101240.38;5160796;28;20132;-81
2022/08/05 11:44:11;;;;;;;0.43;0.43;;;;;;;22.55;57.10;101241.59;5192280;28;20038;-80
2022/08/05 11:46:50;;;;;;;0.30;0.30;;;;;;;22.72;56.52;101240.38;5187744;28;20098;-80
2022/08/05 11:49:22;;;;;;;0.63;0.63;;;;;;;22.74;56.14;101241.16;5181241;28;20036;-80
2022/08/05 11:51:52;;;;;;;0.70;0.70;;;;;;;22.81;56.26;101253.13;5167356;28;20045;-80
2022/08/05 11:54:28;;;;;;;0.52;0.52;;;;;;;22.91;55.69;101234.59;5180347;28;20021;-81
2022/08/05 11:57:01;;;;;;;0.57;0.57;;;;;;;23.05;55.46;101237.16;5194668;28;20049;-79
2022/08/05 11:59:32;;;;;;;;;;;;;;;23.04;55.59;101231.88;5175969;28;20039;-79